Alpha Afovos — SZSJ — position and weather

sailwx.info

Track history (hours):
 
Tides and Currents Weather Stations Pressure Air Temp Water Temp Dewpoint Dewpoint Depression Visibility Wind Speed Wind Dir Waves Ship Positions

Alpha Afovos

Last reported at 2017-May-22 15:57 UTC. Time now 2017-Jun-24 20:38 UTC.
Position N 22°24' E 120°04'.
Warning: this ship's position is 33 days out of date.

Length 224 m; draft 8.4 m.

Type: Cargo ship. MMSI: 239802000.

Date/timePositionNaut miles runAvg speedWind from/ knotsBaromVisibWave heightAir tempDewpointWater temp
2017-May-22 15:57N 22°24' E 120°04'0 0.8
2017-May-22 15:29N 22°23' E 120°04'0 1.0
2017-May-22 15:00N 22°24' E 120°04'1 1.1
2017-May-22 13:59N 22°25' E 120°03'1 1.0
2017-May-22 13:30N 22°25' E 120°03'0 0.9
2017-May-22 12:59N 22°26' E 120°03'0 0.6
2017-May-22 12:27N 22°26' E 120°02'0 0.5
2017-May-22 12:00N 22°26' E 120°02'0 0.8
2017-May-22 11:30N 22°25' E 120°02'2 3.1
2017-May-22 11:00N 22°24' E 120°02'2 3.5
2017-May-22 10:30N 22°22' E 120°03'1 1.1
2017-May-22 10:00N 22°23' E 120°03'2 1.3
2017-May-22 08:14N 22°25' E 120°02'0 1.7
2017-May-22 08:01N 22°25' E 120°02'1 1.9
2017-May-22 07:30N 22°26' E 120°01'1 2.4
2017-May-22 07:01N 22°27' E 120°01'2 4.5
2017-May-22 06:30N 22°29' E 119°59'3 5.8
2017-May-22 06:00N 22°31' E 119°57'3 5.7
2017-May-22 05:30N 22°33' E 119°55'510.1
2017-May-22 05:00N 22°38' E 119°54'1011.1
2017-May-22 04:08N 22°48' E 119°55'  
2017-May-19 16:34N 31°50' E 123°57'110.5
2017-May-19 16:30N 31°51' E 123°57'510.2
2017-May-19 16:00N 31°56' E 123°56'510.5
2017-May-19 15:30N 32°01' E 123°56'610.5
2017-May-19 14:56N 32°07' E 123°56'1010.7
2017-May-19 14:00N 32°17' E 123°54'510.7
2017-May-19 13:30N 32°23' E 123°54'9010.4
2017-May-19 04:51N 33°49' E 123°25'510.6
2017-May-19 04:25N 33°53' E 123°22'410.5
2017-May-19 04:00N 33°56' E 123°19'1710.4
2017-May-19 02:22N 34°10' E 123°06'5 9.6
2017-May-19 01:50N 34°15' E 123°05'410.2
2017-May-19 01:26N 34°18' E 123°02'510.6
2017-May-19 00:56N 34°23' E 122°59'612.2
2017-May-19 00:28N 34°26' E 122°53'912.0
2017-May-18 23:42N 34°33' E 122°46'312.1
2017-May-18 23:29N 34°35' E 122°43'611.9
2017-May-18 23:00N 34°37' E 122°36'612.2
2017-May-18 22:30N 34°37' E 122°29'612.0
2017-May-18 21:59N 34°41' E 122°23'612.2
2017-May-18 21:30N 34°44' E 122°17'612.3
2017-May-18 21:00N 34°47' E 122°11'612.3
2017-May-18 20:30N 34°51' E 122°04'1812.7
2017-May-18 19:07N 34°54' E 121°43'213.3
2017-May-18 18:57N 34°54' E 121°40'1413.4
2017-May-18 17:55N 34°55' E 121°24'513.3
2017-May-18 17:30N 34°56' E 121°17'713.5
2017-May-18 17:00N 34°57' E 121°09'1613.3
2017-May-18 15:49N 34°58' E 120°50'1613.0
2017-May-18 14:35N 34°59' E 120°30'712.7
2017-May-18 14:01N 34°60' E 120°21'  
Track history (hours):
 
Tides and Currents Weather Stations Pressure Air Temp Water Temp Dewpoint Dewpoint Depression Visibility Wind Speed Wind Dir Waves Ship Positions

Alpha Afovos

Last reported at 2017-May-22 15:57 UTC. Time now 2017-Jun-24 20:38 UTC.
Position N 22°24' E 120°04'.
Warning: this ship's position is 33 days out of date.

Length 224 m; draft 8.4 m.

Type: Cargo ship. MMSI: 239802000.

Date/timePositionNaut miles runAvg speedWind from/ knotsBaromVisibWave heightAir tempDewpointWater temp
2017-May-22 15:57N 22°24' E 120°04'0 0.8
2017-May-22 15:29N 22°23' E 120°04'0 1.0
2017-May-22 15:00N 22°24' E 120°04'1 1.1
2017-May-22 13:59N 22°25' E 120°03'1 1.0
2017-May-22 13:30N 22°25' E 120°03'0 0.9
2017-May-22 12:59N 22°26' E 120°03'0 0.6
2017-May-22 12:27N 22°26' E 120°02'0 0.5
2017-May-22 12:00N 22°26' E 120°02'0 0.8
2017-May-22 11:30N 22°25' E 120°02'2 3.1
2017-May-22 11:00N 22°24' E 120°02'2 3.5
2017-May-22 10:30N 22°22' E 120°03'1 1.1
2017-May-22 10:00N 22°23' E 120°03'2 1.3
2017-May-22 08:14N 22°25' E 120°02'0 1.7
2017-May-22 08:01N 22°25' E 120°02'1 1.9
2017-May-22 07:30N 22°26' E 120°01'1 2.4
2017-May-22 07:01N 22°27' E 120°01'2 4.5
2017-May-22 06:30N 22°29' E 119°59'3 5.8
2017-May-22 06:00N 22°31' E 119°57'3 5.7
2017-May-22 05:30N 22°33' E 119°55'510.1
2017-May-22 05:00N 22°38' E 119°54'1011.1
2017-May-22 04:08N 22°48' E 119°55'  
2017-May-19 16:34N 31°50' E 123°57'110.5
2017-May-19 16:30N 31°51' E 123°57'510.2
2017-May-19 16:00N 31°56' E 123°56'510.5
2017-May-19 15:30N 32°01' E 123°56'610.5
2017-May-19 14:56N 32°07' E 123°56'1010.7
2017-May-19 14:00N 32°17' E 123°54'510.7
2017-May-19 13:30N 32°23' E 123°54'9010.4
2017-May-19 04:51N 33°49' E 123°25'510.6
2017-May-19 04:25N 33°53' E 123°22'410.5
2017-May-19 04:00N 33°56' E 123°19'1710.4
2017-May-19 02:22N 34°10' E 123°06'5 9.6
2017-May-19 01:50N 34°15' E 123°05'410.2
2017-May-19 01:26N 34°18' E 123°02'510.6
2017-May-19 00:56N 34°23' E 122°59'612.2
2017-May-19 00:28N 34°26' E 122°53'912.0
2017-May-18 23:42N 34°33' E 122°46'312.1
2017-May-18 23:29N 34°35' E 122°43'611.9
2017-May-18 23:00N 34°37' E 122°36'612.2
2017-May-18 22:30N 34°37' E 122°29'612.0
2017-May-18 21:59N 34°41' E 122°23'612.2
2017-May-18 21:30N 34°44' E 122°17'612.3
2017-May-18 21:00N 34°47' E 122°11'612.3
2017-May-18 20:30N 34°51' E 122°04'1812.7
2017-May-18 19:07N 34°54' E 121°43'213.3
2017-May-18 18:57N 34°54' E 121°40'1413.4
2017-May-18 17:55N 34°55' E 121°24'513.3
2017-May-18 17:30N 34°56' E 121°17'713.5
2017-May-18 17:00N 34°57' E 121°09'1613.3
2017-May-18 15:49N 34°58' E 120°50'1613.0
2017-May-18 14:35N 34°59' E 120°30'712.7
2017-May-18 14:01N 34°60' E 120°21'  

Dump ship's entire track history